Time;durP1;ratioP1;P1;durP2;ratioP2;P2;SDS_P1;SDS_P2;PMS_P1;PMS_P2;Temp;Humidity;BMP_temperature;BMP_pressure;BME280_temperature;BME280_humidity;BME280_pressure;Samples;Min_cycle;Max_cycle;Signal;HPM_P1;HPM_P2
2021/09/02 00:02:01;;;;;;;5.57;3.12;;;;;;;28.14;30.69;101305.47;143725;648;46007;-72
2021/09/02 00:04:32;;;;;;;10.15;3.05;;;;;;;28.12;31.08;101312.38;143721;661;47012;-72
2021/09/02 00:06:59;;;;;;;6.55;3.15;;;;;;;28.11;30.79;101311.59;143721;594;47004;-73
2021/09/02 00:09:27;;;;;;;5.70;2.37;;;;;;;28.10;30.54;101311.87;143721;573;46007;-74
2021/09/02 00:11:53;;;;;;;9.60;2.97;;;;;;;28.06;30.88;101330.16;143723;611;47004;-71
2021/09/02 00:14:19;;;;;;;4.45;2.15;;;;;;;28.04;30.62;101313.88;143720;625;47010;-72
2021/09/02 00:16:47;;;;;;;5.90;2.47;;;;;;;28.03;29.67;101306.72;143720;573;47005;-73
2021/09/02 00:19:14;;;;;;;3.80;1.98;;;;;;;28.03;29.42;101305.91;143722;645;47006;-73
2021/09/02 00:21:40;;;;;;;5.43;2.20;;;;;;;28.02;29.27;101318.06;143723;644;47004;-72
2021/09/02 00:24:07;;;;;;;5.10;2.22;;;;;;;28.06;29.66;101317.16;143722;621;47011;-71
2021/09/02 00:26:34;;;;;;;4.43;2.53;;;;;;;28.08;29.08;101319.59;143721;580;47004;-71
2021/09/02 00:29:00;;;;;;;6.97;2.28;;;;;;;28.10;29.57;101328.44;143723;651;47002;-72
2021/09/02 00:31:27;;;;;;;2.95;1.90;;;;;;;28.08;29.40;101322.38;143722;584;47004;-72
2021/09/02 00:33:53;;;;;;;4.32;2.50;;;;;;;28.04;29.64;101324.91;143722;607;47010;-71
2021/09/02 00:36:20;;;;;;;3.83;2.37;;;;;;;28.03;29.79;101333.50;143720;573;47004;-72
2021/09/02 00:38:46;;;;;;;3.12;2.10;;;;;;;28.02;29.75;101323.59;143723;579;47009;-73
2021/09/02 00:41:13;;;;;;;4.43;2.47;;;;;;;27.96;29.95;101322.88;143723;638;47004;-73
2021/09/02 00:43:41;;;;;;;3.87;2.12;;;;;;;27.93;29.78;101316.00;143722;605;47008;-72
2021/09/02 00:46:13;;;;;;;3.35;2.28;;;;;;;27.97;29.79;101310.69;143717;604;47006;-72
2021/09/02 00:48:39;;;;;;;6.22;2.62;;;;;;;27.96;29.08;101322.88;143723;584;47008;-71
2021/09/02 00:51:06;;;;;;;3.87;2.28;;;;;;;27.93;29.23;101326.22;143720;624;49002;-71
2021/09/02 00:53:36;;;;;;;3.55;2.30;;;;;;;27.88;29.61;101324.38;143724;573;46928;-73
2021/09/02 00:56:02;;;;;;;7.05;2.33;;;;;;;27.85;29.94;101322.22;143720;612;47004;-72
2021/09/02 00:58:28;;;;;;;5.95;2.33;;;;;;;27.88;30.42;101326.31;143721;742;47006;-71
2021/09/02 01:00:55;;;;;;;4.00;2.50;;;;;;;27.82;30.90;101340.19;143722;589;47006;-74
2021/09/02 01:03:22;;;;;;;3.75;2.30;;;;;;;27.80;30.63;101338.84;143721;575;47010;-72
2021/09/02 01:05:52;;;;;;;3.60;2.12;;;;;;;27.79;30.16;101337.22;143721;581;47004;-73
2021/09/02 01:08:19;;;;;;;5.55;2.40;;;;;;;27.75;29.88;101353.56;143716;583;48013;-72
2021/09/02 01:10:50;;;;;;;3.47;2.08;;;;;;;27.70;30.45;101359.16;143722;606;47006;-73
2021/09/02 01:13:17;;;;;;;4.80;2.35;;;;;;;27.76;29.57;101348.84;143722;580;47006;-73
2021/09/02 01:15:44;;;;;;;4.03;2.08;;;;;;;27.81;29.52;101348.78;143721;577;47004;-72
2021/09/02 01:18:11;;;;;;;3.10;2.40;;;;;;;27.77;30.47;101342.22;143721;585;47008;-73
2021/09/02 01:20:37;;;;;;;4.53;2.10;;;;;;;27.70;31.03;101339.84;143722;644;47004;-72
2021/09/02 01:23:06;;;;;;;7.82;2.28;;;;;;;27.65;31.22;101348.19;143722;586;47010;-72
2021/09/02 01:25:35;;;;;;;5.25;2.20;;;;;;;27.64;31.30;101335.50;143722;622;47004;-70
2021/09/02 01:28:05;;;;;;;4.37;2.17;;;;;;;27.64;30.84;101329.97;143722;592;47008;-73
2021/09/02 01:30:33;;;;;;;8.68;2.47;;;;;;;27.63;31.40;101336.62;143722;576;47006;-74
2021/09/02 01:33:00;;;;;;;9.55;2.12;;;;;;;27.58;31.02;101315.44;143722;595;47008;-73
2021/09/02 01:35:31;;;;;;;5.15;2.22;;;;;;;27.56;30.59;101325.97;143721;572;47004;-72
2021/09/02 01:38:00;;;;;;;3.58;2.22;;;;;;;27.53;30.92;101323.84;143722;586;47009;-72
2021/09/02 01:40:36;;;;;;;6.20;2.42;;;;;;;27.54;31.08;101342.00;143724;634;47000;-73
2021/09/02 01:43:04;;;;;;;4.20;2.62;;;;;;;27.58;30.04;101320.97;143723;670;47010;-72
2021/09/02 01:45:31;;;;;;;3.97;2.05;;;;;;;27.61;31.20;101327.84;143721;664;47006;-73
2021/09/02 01:48:02;;;;;;;3.75;2.20;;;;;;;27.62;32.36;101340.53;143724;640;47008;-71
2021/09/02 01:50:32;;;;;;;6.85;2.67;;;;;;;27.53;32.70;101326.59;143724;588;47002;-73
2021/09/02 01:53:04;;;;;;;4.40;2.10;;;;;;;27.53;31.66;101332.09;143721;601;47012;-71
2021/09/02 01:55:30;;;;;;;3.62;2.67;;;;;;;27.51;32.66;101339.88;143721;601;47004;-72
2021/09/02 01:57:57;;;;;;;6.15;2.53;;;;;;;27.48;32.68;101329.41;143723;578;47006;-70
2021/09/02 02:00:24;;;;;;;8.13;2.83;;;;;;;27.43;32.39;101324.78;143722;627;47006;-73
2021/09/02 02:02:51;;;;;;;5.00;2.33;;;;;;;27.37;32.19;101328.72;143721;683;47010;-72
2021/09/02 02:05:19;;;;;;;7.85;2.80;;;;;;;27.36;32.81;101333.38;143719;633;47004;-72
2021/09/02 02:07:46;;;;;;;14.30;3.55;;;;;;;27.32;32.80;101334.28;143725;569;46008;-70
2021/09/02 02:10:17;;;;;;;3.85;2.90;;;;;;;27.36;33.13;101338.91;143724;569;47002;-72
2021/09/02 02:12:44;;;;;;;3.80;2.60;;;;;;;27.37;32.59;101343.31;143723;653;47008;-70
2021/09/02 02:15:12;;;;;;;6.18;2.78;;;;;;;27.36;32.57;101341.66;143720;605;47007;-72
2021/09/02 02:17:39;;;;;;;6.95;2.90;;;;;;;27.42;33.73;101334.16;143721;622;47006;-71
2021/09/02 02:20:08;;;;;;;5.18;2.95;;;;;;;27.32;34.05;101339.81;143724;595;47002;-72
2021/09/02 02:22:34;;;;;;;4.82;3.30;;;;;;;27.25;34.33;101342.94;143721;583;47011;-73
2021/09/02 02:25:01;;;;;;;4.72;3.00;;;;;;;27.21;34.14;101348.25;143720;705;47006;-73
2021/09/02 02:27:27;;;;;;;6.65;2.90;;;;;;;27.21;34.12;101359.28;143723;573;46006;-73
2021/09/02 02:29:54;;;;;;;3.00;2.70;;;;;;;27.17;34.61;101372.00;143722;570;47002;-72
2021/09/02 02:32:20;;;;;;;4.47;2.87;;;;;;;27.18;34.35;101370.88;143723;621;47010;-73
2021/09/02 02:34:47;;;;;;;6.07;2.90;;;;;;;27.19;34.28;101369.78;143719;596;47006;-71
2021/09/02 02:37:13;;;;;;;4.25;2.80;;;;;;;27.15;33.50;101367.91;143721;894;47006;-71
2021/09/02 02:39:40;;;;;;;6.12;3.08;;;;;;;27.06;33.54;101365.78;143723;695;47002;-73
2021/09/02 02:42:08;;;;;;;5.07;3.00;;;;;;;27.06;33.29;101371.31;143723;600;47010;-72
2021/09/02 02:44:36;;;;;;;7.65;3.42;;;;;;;27.01;33.45;101354.00;143721;586;47006;-73
2021/09/02 02:47:04;;;;;;;13.32;3.53;;;;;;;26.94;33.25;101362.66;143721;600;47006;-72
2021/09/02 02:49:31;;;;;;;9.13;3.20;;;;;;;26.91;33.36;101361.31;143717;574;50000;-73
2021/09/02 02:51:57;;;;;;;3.45;2.92;;;;;;;26.94;33.43;101366.22;143721;593;47012;-71
2021/09/02 02:54:24;;;;;;;5.60;2.87;;;;;;;26.96;33.37;101365.94;143721;685;47004;-73
2021/09/02 02:56:51;;;;;;;4.75;3.20;;;;;;;26.86;33.65;101352.25;143722;572;47008;-72
2021/09/02 02:59:17;;;;;;;9.98;3.85;;;;;;;26.84;33.35;101371.84;143723;691;47004;-72
2021/09/02 03:01:43;;;;;;;6.87;3.05;;;;;;;26.80;33.54;101373.53;143722;605;47004;-74
2021/09/02 03:04:10;;;;;;;5.68;3.30;;;;;;;26.75;33.43;101346.84;143720;582;47004;-73
2021/09/02 03:06:36;;;;;;;6.68;3.28;;;;;;;26.72;33.38;101377.72;143723;610;47008;-75
2021/09/02 03:09:03;;;;;;;4.55;3.37;;;;;;;26.74;33.49;101371.94;143722;699;47004;-72
2021/09/02 03:11:32;;;;;;;6.32;3.92;;;;;;;26.74;33.05;101360.94;143719;698;47004;-73
2021/09/02 03:13:59;;;;;;;8.25;3.55;;;;;;;26.73;33.23;101370.31;143720;573;47004;-71
2021/09/02 03:16:26;;;;;;;4.47;3.55;;;;;;;26.71;33.13;101373.34;143723;602;47008;-74
2021/09/02 03:18:53;;;;;;;7.35;3.22;;;;;;;26.72;32.13;101361.19;143722;573;47004;-71
2021/09/02 03:21:20;;;;;;;9.00;3.55;;;;;;;26.75;32.33;101366.13;143721;591;47010;-72
2021/09/02 03:23:46;;;;;;;6.00;3.87;;;;;;;26.70;32.17;101346.91;143722;673;47006;-72
2021/09/02 03:26:13;;;;;;;7.07;3.55;;;;;;;26.71;32.17;101359.56;143720;612;47006;-75
2021/09/02 03:28:39;;;;;;;5.57;3.42;;;;;;;26.71;30.75;101356.81;143722;574;47004;-72
2021/09/02 03:31:06;;;;;;;5.72;3.62;;;;;;;26.70;30.67;101357.09;143721;604;47008;-71
2021/09/02 03:33:33;;;;;;;4.47;3.20;;;;;;;26.72;30.01;101371.41;143720;644;47006;-75
2021/09/02 03:36:00;;;;;;;4.57;3.55;;;;;;;26.71;29.58;101365.06;143723;590;47006;-71
2021/09/02 03:38:26;;;;;;;5.65;3.60;;;;;;;26.68;30.37;101376.66;143724;688;47002;-72
2021/09/02 03:40:53;;;;;;;7.45;3.75;;;;;;;26.70;30.23;101374.44;143721;572;47010;-73
2021/09/02 03:43:20;;;;;;;8.93;3.58;;;;;;;26.72;30.76;101376.94;143721;566;47006;-72
2021/09/02 03:45:48;;;;;;;9.07;4.07;;;;;;;26.81;30.12;101372.44;143723;614;46007;-71
2021/09/02 03:48:15;;;;;;;4.35;3.47;;;;;;;26.80;30.28;101379.06;143721;597;47006;-72
2021/09/02 03:50:41;;;;;;;4.85;3.53;;;;;;;26.72;31.57;101380.50;143722;664;47918;-73
2021/09/02 03:53:08;;;;;;;6.35;4.10;;;;;;;26.84;31.30;101390.31;143726;688;46004;-73
2021/09/02 03:55:34;;;;;;;4.45;3.60;;;;;;;26.84;31.18;101384.78;143724;617;46010;-73
2021/09/02 03:58:01;;;;;;;3.97;3.40;;;;;;;26.93;30.79;101383.84;143728;719;46006;-73
2021/09/02 04:00:27;;;;;;;6.87;3.97;;;;;;;27.02;30.62;101389.53;143726;687;46010;-73
2021/09/02 04:02:54;;;;;;;6.35;3.30;;;;;;;27.06;30.23;101393.34;143724;612;46006;-73
2021/09/02 04:05:20;;;;;;;4.50;3.22;;;;;;;27.13;29.48;101390.25;143720;668;47021;-73
2021/09/02 04:07:47;;;;;;;5.15;3.50;;;;;;;27.18;30.49;101400.41;143729;675;46009;-73
2021/09/02 04:10:13;;;;;;;4.05;3.20;;;;;;;27.20;30.37;101401.75;143723;651;46010;-72
2021/09/02 04:12:40;;;;;;;4.72;3.45;;;;;;;27.30;31.09;101402.72;143720;584;46010;-74
2021/09/02 04:15:07;;;;;;;8.63;3.00;;;;;;;27.23;31.55;101423.22;143725;721;46007;-72
2021/09/02 04:17:34;;;;;;;7.12;3.28;;;;;;;27.30;31.57;101413.75;143728;576;46006;-72
2021/09/02 04:20:00;;;;;;;6.43;3.60;;;;;;;27.31;31.69;101409.87;143726;570;46012;-73
2021/09/02 04:22:26;;;;;;;6.55;3.60;;;;;;;27.30;31.84;101417.34;143723;569;46004;-74
2021/09/02 04:24:53;;;;;;;5.50;3.60;;;;;;;27.36;31.65;101429.13;143726;589;46019;-75
2021/09/02 04:27:19;;;;;;;3.33;3.03;;;;;;;27.37;31.54;101428.81;143724;598;46012;-73
2021/09/02 04:29:46;;;;;;;4.07;3.00;;;;;;;27.35;31.29;101435.75;143723;577;47012;-72
2021/09/02 04:32:12;;;;;;;5.95;3.58;;;;;;;27.39;31.70;101434.06;143723;709;47004;-74
2021/09/02 04:34:39;;;;;;;3.55;3.08;;;;;;;27.38;31.62;101433.22;143724;604;46006;-73
2021/09/02 04:37:06;;;;;;;4.62;3.47;;;;;;;27.39;31.63;101440.37;143725;691;47004;-73
2021/09/02 04:39:33;;;;;;;5.30;3.65;;;;;;;27.50;31.39;101448.56;143720;654;47013;-73
2021/09/02 04:41:59;;;;;;;8.63;3.62;;;;;;;27.54;31.33;101444.91;143725;606;46925;-72
2021/09/02 04:44:26;;;;;;;7.78;3.20;;;;;;;27.64;30.57;101441.19;143722;710;47007;-71
2021/09/02 04:46:52;;;;;;;4.28;2.80;;;;;;;27.68;29.33;101452.47;143724;641;47006;-73
2021/09/02 04:49:19;;;;;;;5.15;2.80;;;;;;;27.68;29.12;101449.69;143726;656;47010;-73
2021/09/02 04:51:45;;;;;;;5.10;2.72;;;;;;;27.76;29.28;101451.81;143725;581;46006;-72
2021/09/02 04:54:12;;;;;;;3.47;2.97;;;;;;;27.84;29.23;101451.13;143722;604;46006;-73
2021/09/02 04:56:38;;;;;;;4.50;2.97;;;;;;;27.86;29.48;101445.31;143721;619;47004;-72
2021/09/02 04:59:04;;;;;;;6.18;2.95;;;;;;;27.87;29.27;101448.88;143723;598;47011;-72
2021/09/02 05:01:31;;;;;;;3.50;3.00;;;;;;;27.93;28.94;101450.47;143724;580;47006;-72
2021/09/02 05:03:57;;;;;;;3.65;2.60;;;;;;;27.97;29.40;101457.84;143721;585;47002;-73
2021/09/02 05:06:24;;;;;;;3.25;2.62;;;;;;;27.96;27.75;101463.69;143725;584;47000;-73
2021/09/02 05:08:50;;;;;;;4.75;2.92;;;;;;;28.05;28.12;101464.63;143724;680;47010;-72
2021/09/02 05:11:17;;;;;;;3.80;2.75;;;;;;;28.16;28.54;101475.53;143724;655;46011;-72
2021/09/02 05:13:43;;;;;;;9.68;3.37;;;;;;;28.20;29.47;101474.66;143724;607;46009;-72
2021/09/02 05:16:09;;;;;;;6.57;3.00;;;;;;;28.26;29.69;101473.44;143727;584;46008;-72
2021/09/02 05:18:36;;;;;;;3.60;3.08;;;;;;;28.32;29.88;101465.91;143723;577;46010;-72
2021/09/02 05:21:02;;;;;;;5.45;3.03;;;;;;;28.35;29.53;101472.75;143725;635;46007;-72
2021/09/02 05:23:29;;;;;;;12.32;3.55;;;;;;;28.37;28.83;101473.28;143724;583;46008;-72
2021/09/02 05:25:55;;;;;;;6.37;2.60;;;;;;;28.38;27.99;101474.94;143723;616;47002;-73
2021/09/02 05:28:22;;;;;;;9.25;3.50;;;;;;;28.42;27.79;101470.41;143729;568;46009;-72
2021/09/02 05:30:48;;;;;;;6.35;2.67;;;;;;;28.43;27.89;101474.81;143724;576;47006;-74
2021/09/02 05:33:14;;;;;;;5.85;3.05;;;;;;;28.48;28.22;101473.94;143724;613;47008;-71
2021/09/02 05:35:41;;;;;;;5.47;2.92;;;;;;;28.50;28.09;101480.78;143723;633;47002;-71
2021/09/02 05:38:11;;;;;;;7.75;2.80;;;;;;;28.54;28.03;101475.47;143722;596;47011;-73
2021/09/02 05:40:37;;;;;;;4.85;2.87;;;;;;;28.54;28.49;101481.84;143721;580;47006;-72
2021/09/02 05:43:04;;;;;;;6.37;3.28;;;;;;;28.53;28.50;101480.19;143720;591;47008;-72
2021/09/02 05:45:30;;;;;;;4.82;3.22;;;;;;;28.53;28.89;101482.97;143724;596;47002;-72
2021/09/02 05:47:56;;;;;;;8.48;3.55;;;;;;;28.48;28.12;101491.31;143724;641;47012;-72
2021/09/02 05:50:23;;;;;;;10.20;4.35;;;;;;;28.51;28.52;101495.41;143723;607;47004;-72
2021/09/02 05:52:49;;;;;;;19.83;3.90;;;;;;;28.53;28.71;101495.94;143721;567;47006;-72
2021/09/02 05:55:16;;;;;;;14.75;4.40;;;;;;;28.54;28.20;101492.88;143724;573;47006;-72
2021/09/02 05:57:43;;;;;;;9.05;3.70;;;;;;;28.54;29.29;101492.88;143723;597;47010;-71
2021/09/02 06:00:11;;;;;;;6.68;3.47;;;;;;;28.57;28.83;101494.22;143721;666;47926;-72
2021/09/02 06:02:37;;;;;;;5.25;3.20;;;;;;;28.60;28.11;101497.19;143726;615;47006;-73
2021/09/02 06:05:04;;;;;;;11.02;4.68;;;;;;;28.62;28.91;101493.31;143722;599;47010;-72
2021/09/02 06:07:31;;;;;;;5.43;3.62;;;;;;;28.62;29.33;101496.06;143717;582;48006;-72
2021/09/02 06:09:57;;;;;;;17.58;4.35;;;;;;;28.67;28.85;101496.81;143723;645;47004;-72
2021/09/02 06:12:24;;;;;;;9.48;3.60;;;;;;;28.76;28.34;101499.75;143723;621;47006;-72
2021/09/02 06:14:50;;;;;;;12.05;5.60;;;;;;;28.78;28.64;101497.47;143723;600;47007;-72
2021/09/02 06:17:17;;;;;;;8.98;4.20;;;;;;;28.76;29.07;101491.44;143724;651;47010;-72
2021/09/02 06:19:43;;;;;;;10.75;3.53;;;;;;;28.75;30.31;101500.88;143722;600;47011;-71
2021/09/02 06:22:10;;;;;;;9.52;4.57;;;;;;;28.73;30.11;101501.16;143723;567;46009;-73
2021/09/02 06:24:36;;;;;;;9.00;3.92;;;;;;;28.76;30.63;101501.66;143725;638;47004;-72
2021/09/02 06:27:03;;;;;;;6.03;3.62;;;;;;;28.76;30.54;101508.03;143726;567;47008;-72
2021/09/02 06:29:30;;;;;;;8.68;3.70;;;;;;;28.82;30.12;101511.53;143723;569;47004;-72
2021/09/02 06:31:56;;;;;;;9.57;4.53;;;;;;;28.86;30.14;101502.31;143726;731;46008;-72
2021/09/02 06:34:23;;;;;;;5.78;4.35;;;;;;;28.89;29.93;101510.00;143726;695;47002;-72
2021/09/02 06:36:49;;;;;;;8.93;3.72;;;;;;;29.00;30.52;101507.87;143724;589;47012;-72
2021/09/02 06:39:16;;;;;;;5.45;3.50;;;;;;;29.08;29.08;101514.63;143723;600;47004;-73
2021/09/02 06:41:42;;;;;;;6.25;3.35;;;;;;;29.16;29.08;101519.44;143723;614;47008;-72
2021/09/02 06:44:08;;;;;;;9.75;3.67;;;;;;;29.20;28.04;101512.19;143724;682;47004;-72
2021/09/02 06:46:35;;;;;;;7.25;3.75;;;;;;;29.20;29.24;101509.41;143724;653;47010;-74
2021/09/02 06:49:02;;;;;;;8.25;5.75;;;;;;;29.20;30.07;101512.19;143723;628;47004;-72
2021/09/02 06:51:28;;;;;;;7.37;4.22;;;;;;;29.23;29.06;101513.50;143724;567;47009;-71
2021/09/02 06:53:55;;;;;;;4.12;3.10;;;;;;;29.26;28.48;101512.09;143723;583;47006;-71
2021/09/02 06:56:21;;;;;;;8.32;3.10;;;;;;;29.30;27.94;101511.16;143726;586;47008;-71
2021/09/02 06:58:48;;;;;;;5.30;3.30;;;;;;;29.36;27.33;101522.16;143718;568;47005;-71
2021/09/02 07:01:15;;;;;;;3.87;3.28;;;;;;;29.40;27.91;101517.63;143727;579;47008;-71
2021/09/02 07:03:41;;;;;;;4.93;3.42;;;;;;;29.45;28.18;101510.06;143726;634;47004;-71
2021/09/02 07:06:08;;;;;;;7.80;3.35;;;;;;;29.54;28.39;101517.63;143723;608;47010;-72
2021/09/02 07:08:36;;;;;;;5.78;4.12;;;;;;;29.58;29.10;101522.25;143722;590;47004;-72
2021/09/02 07:11:03;;;;;;;12.48;7.15;;;;;;;29.60;28.02;101521.94;143726;593;47008;-72
2021/09/02 07:13:30;;;;;;;7.20;4.05;;;;;;;29.63;28.52;101521.34;143721;607;47005;-72
2021/09/02 07:15:57;;;;;;;14.07;12.45;;;;;;;29.64;26.52;101525.75;143723;685;47010;-71
2021/09/02 07:18:23;;;;;;;4.55;3.85;;;;;;;29.72;27.82;101522.22;143723;573;47006;-73
2021/09/02 07:20:50;;;;;;;8.95;4.57;;;;;;;29.80;28.53;101523.44;143726;597;47007;-71
2021/09/02 07:23:16;;;;;;;7.87;6.10;;;;;;;29.71;27.09;101526.13;143726;575;47006;-70
2021/09/02 07:25:43;;;;;;;8.02;5.53;;;;;;;29.67;28.83;101527.88;143724;611;47921;-70
2021/09/02 07:28:09;;;;;;;6.87;4.37;;;;;;;29.75;28.05;101537.41;143722;622;47007;-69
2021/09/02 07:30:36;;;;;;;12.50;8.20;;;;;;;29.75;28.08;101542.94;143718;602;48025;-71
2021/09/02 07:33:02;;;;;;;7.00;6.07;;;;;;;29.86;27.56;101535.22;143725;582;47004;-71
2021/09/02 07:35:29;;;;;;;6.95;4.35;;;;;;;29.89;28.52;101532.69;143722;607;47010;-70
2021/09/02 07:37:55;;;;;;;7.95;5.47;;;;;;;29.98;28.02;101543.03;143721;739;47006;-71
2021/09/02 07:40:22;;;;;;;9.05;7.20;;;;;;;29.98;28.28;101540.28;143725;572;47014;-70
2021/09/02 07:42:48;;;;;;;12.23;4.82;;;;;;;29.98;27.98;101538.34;143725;594;47006;-70
2021/09/02 07:45:14;;;;;;;6.05;3.97;;;;;;;30.06;27.97;101545.09;143721;668;47010;-72
2021/09/02 07:47:41;;;;;;;7.30;4.30;;;;;;;30.07;27.77;101541.19;143721;595;47004;-70
2021/09/02 07:50:09;;;;;;;6.25;4.15;;;;;;;29.99;27.89;101537.22;143725;615;47006;-70
2021/09/02 07:52:38;;;;;;;7.80;5.20;;;;;;;30.03;28.07;101538.19;143723;573;47004;-71
2021/09/02 07:55:07;;;;;;;6.03;4.60;;;;;;;30.03;27.83;101549.28;143723;619;47010;-71
2021/09/02 07:57:33;;;;;;;5.93;4.00;;;;;;;30.06;27.94;101550.62;143721;627;47004;-71
2021/09/02 08:00:00;;;;;;;8.25;4.30;;;;;;;30.04;27.75;101553.69;143725;598;47006;-71
2021/09/02 08:02:27;;;;;;;5.25;4.10;;;;;;;30.06;27.91;101553.41;143726;588;47006;-71
2021/09/02 08:04:53;;;;;;;7.22;4.55;;;;;;;30.03;27.87;101551.25;143724;639;47009;-71
2021/09/02 08:07:20;;;;;;;6.45;4.25;;;;;;;30.08;28.04;101554.72;143723;600;47006;-71
2021/09/02 08:09:46;;;;;;;6.50;3.67;;;;;;;30.09;27.80;101556.34;143724;566;47008;-72
2021/09/02 08:12:14;;;;;;;10.57;4.82;;;;;;;30.10;28.04;101552.44;143724;570;47003;-70
2021/09/02 08:14:41;;;;;;;5.07;4.50;;;;;;;30.22;28.27;101549.13;143724;572;47013;-71
2021/09/02 08:17:07;;;;;;;8.43;4.55;;;;;;;30.33;27.96;101558.03;143722;584;47004;-70
2021/09/02 08:19:34;;;;;;;5.85;4.32;;;;;;;30.31;27.90;101563.06;143726;589;47006;-70
2021/09/02 08:22:00;;;;;;;6.45;4.07;;;;;;;30.35;27.67;101558.53;143724;663;47004;-69
2021/09/02 08:24:26;;;;;;;7.18;4.35;;;;;;;30.47;27.72;101557.16;143724;586;47008;-71
2021/09/02 08:26:53;;;;;;;6.53;4.40;;;;;;;30.48;27.90;101554.06;143722;589;47004;-71
2021/09/02 08:29:19;;;;;;;8.20;4.35;;;;;;;30.55;26.90;101548.94;143724;607;47008;-71
2021/09/02 08:31:46;;;;;;;5.50;3.80;;;;;;;30.60;27.47;101556.31;143725;602;47004;-70
2021/09/02 08:34:12;;;;;;;6.68;4.10;;;;;;;30.64;27.45;101554.53;143723;576;47010;-71
2021/09/02 08:36:39;;;;;;;6.18;4.32;;;;;;;30.59;27.33;101549.13;143721;585;47004;-72
2021/09/02 08:39:05;;;;;;;5.43;3.90;;;;;;;30.72;27.07;101555.72;143726;568;47006;-69
2021/09/02 08:41:34;;;;;;;7.43;4.07;;;;;;;30.88;26.60;101549.78;143725;585;47006;-71
2021/09/02 08:44:02;;;;;;;5.75;3.87;;;;;;;30.98;26.68;101552.28;143721;601;47010;-72
2021/09/02 08:46:30;;;;;;;4.78;3.67;;;;;;;30.97;26.58;101547.91;143724;599;47004;-73
2021/09/02 08:48:59;;;;;;;4.93;3.37;;;;;;;30.95;26.01;101545.44;143722;575;47006;-72
2021/09/02 08:51:26;;;;;;;3.87;3.42;;;;;;;30.89;26.41;101549.47;143724;597;47006;-70
2021/09/02 08:53:54;;;;;;;5.55;3.50;;;;;;;30.98;26.83;101546.72;143726;575;46025;-71
2021/09/02 08:56:21;;;;;;;8.40;3.55;;;;;;;31.07;26.60;101544.84;143722;666;47004;-70
2021/09/02 08:58:47;;;;;;;4.35;3.47;;;;;;;31.19;26.30;101535.94;143725;586;47007;-70
2021/09/02 09:01:14;;;;;;;6.25;4.00;;;;;;;31.30;26.75;101536.50;143726;612;47004;-71
2021/09/02 09:03:47;;;;;;;6.45;4.32;;;;;;;31.38;25.80;101527.34;143726;568;47010;-71
2021/09/02 09:06:23;;;;;;;9.02;3.90;;;;;;;31.42;25.51;101533.91;143722;577;47004;-71
2021/09/02 09:08:49;;;;;;;3.60;3.30;;;;;;;31.42;25.48;101520.03;143724;568;47006;-73
2021/09/02 09:11:21;;;;;;;6.45;3.80;;;;;;;31.47;26.29;101510.72;143726;601;47006;-70
2021/09/02 09:14:03;;;;;;;5.47;3.65;;;;;;;31.49;25.60;101515.97;143708;569;54005;-70
2021/09/02 09:16:59;;;;;;;6.75;3.78;;;;;;;31.58;25.07;101506.53;143727;732;46008;-71
2021/09/02 09:19:50;;;;;;;4.20;3.78;;;;;;;31.71;26.13;101513.09;143726;575;48009;-72
2021/09/02 09:22:20;;;;;;;5.10;3.40;;;;;;;31.88;24.95;101514.25;143727;592;47006;-72
2021/09/02 09:24:54;;;;;;;5.95;3.60;;;;;;;32.04;24.55;101520.16;143728;589;46010;-71
2021/09/02 09:27:48;;;;;;;6.10;3.47;;;;;;;32.13;24.54;101512.63;143728;604;47010;-72
2021/09/02 09:30:17;;;;;;;4.60;4.05;;;;;;;32.19;24.17;101514.13;143727;597;46006;-70
2021/09/02 09:32:52;;;;;;;3.70;3.35;;;;;;;32.29;23.75;101509.41;143730;602;46008;-70
2021/09/02 09:35:21;;;;;;;4.72;3.37;;;;;;;32.34;23.70;101510.06;143723;586;48006;-72
2021/09/02 09:37:49;;;;;;;5.10;3.50;;;;;;;32.34;23.30;101504.50;143724;624;47002;-72
2021/09/02 09:40:24;;;;;;;7.32;3.60;;;;;;;32.39;23.85;101497.94;143725;679;47008;-71
2021/09/02 09:42:59;;;;;;;4.22;3.40;;;;;;;32.52;23.52;101498.91;143728;623;46008;-71
2021/09/02 09:46:00;;;;;;;4.53;3.15;;;;;;;32.66;23.29;101493.97;143722;594;47004;-73
2021/09/02 09:48:30;;;;;;;4.07;2.85;;;;;;;32.80;23.49;101498.50;143725;588;46008;-71
2021/09/02 09:51:17;;;;;;;3.37;3.08;;;;;;;32.82;23.27;101501.00;143724;580;47008;-72
2021/09/02 09:53:51;;;;;;;4.87;3.22;;;;;;;32.93;22.73;101505.03;143731;589;46012;-72
2021/09/02 09:56:24;;;;;;;4.75;3.00;;;;;;;32.90;23.47;101502.91;143720;582;47002;-72
2021/09/02 09:58:52;;;;;;;6.15;3.30;;;;;;;32.95;22.59;101497.97;143725;586;46008;-71
2021/09/02 10:01:20;;;;;;;3.37;2.78;;;;;;;32.93;23.00;101493.91;143724;663;46008;-72
2021/09/02 10:03:52;;;;;;;3.28;2.90;;;;;;;32.95;23.59;101488.81;143725;578;47004;-70
2021/09/02 10:06:20;;;;;;;4.97;3.20;;;;;;;32.99;23.28;101480.63;143726;674;46011;-71
2021/09/02 10:08:47;;;;;;;5.90;2.87;;;;;;;33.00;23.08;101490.59;143727;573;46008;-71
2021/09/02 10:11:15;;;;;;;7.35;3.10;;;;;;;33.00;22.33;101494.22;143720;566;49004;-73
2021/09/02 10:13:44;;;;;;;3.97;3.17;;;;;;;33.01;22.43;101481.91;143724;575;47004;-72
2021/09/02 10:16:11;;;;;;;7.07;3.45;;;;;;;33.09;23.50;101474.69;143723;679;46010;-71
2021/09/02 10:18:42;;;;;;;4.72;3.25;;;;;;;33.24;22.44;101476.91;143723;618;47004;-71
2021/09/02 10:21:10;;;;;;;4.05;2.67;;;;;;;33.38;22.46;101478.66;143723;674;46012;-72
2021/09/02 10:23:37;;;;;;;5.05;3.03;;;;;;;33.38;22.90;101473.87;143722;568;47004;-72
2021/09/02 10:26:04;;;;;;;5.75;3.33;;;;;;;33.34;22.27;101463.72;143725;597;46020;-72
2021/09/02 10:28:35;;;;;;;8.55;3.20;;;;;;;33.47;22.44;101470.25;143724;593;46004;-71
2021/09/02 10:31:19;;;;;;;8.50;3.30;;;;;;;33.49;22.42;101470.72;143719;646;47002;-71
2021/09/02 10:33:47;;;;;;;5.68;3.37;;;;;;;33.51;21.95;101466.44;143728;575;46004;-73
2021/09/02 10:36:37;;;;;;;6.72;3.10;;;;;;;33.50;22.08;101464.81;143726;632;46008;-71
2021/09/02 10:39:04;;;;;;;4.28;3.40;;;;;;;33.61;22.55;101467.22;143720;572;47004;-71
2021/09/02 10:41:57;;;;;;;3.97;3.10;;;;;;;33.66;22.35;101461.41;143715;605;46009;-72
2021/09/02 10:44:50;;;;;;;4.05;3.05;;;;;;;33.58;22.64;101453.94;143726;598;47002;-73
2021/09/02 10:47:21;;;;;;;10.93;3.63;;;;;;;33.56;21.87;101471.00;143722;572;47012;-71
2021/09/02 10:50:18;;;;;;;4.47;3.45;;;;;;;33.59;22.61;101463.94;143724;610;46008;-72
2021/09/02 10:52:44;;;;;;;13.82;4.28;;;;;;;33.52;22.04;101451.38;143723;605;47004;-72
2021/09/02 10:55:34;;;;;;;3.62;3.17;;;;;;;33.55;21.98;101455.44;143722;616;46015;-71
2021/09/02 10:58:02;;;;;;;3.90;3.08;;;;;;;33.63;22.21;101457.34;143726;638;46010;-72
2021/09/02 11:00:33;;;;;;;3.15;2.83;;;;;;;33.69;22.06;101455.16;143722;581;46022;-70
2021/09/02 11:03:40;;;;;;;4.93;2.97;;;;;;;33.69;22.10;101450.44;143724;666;46008;-72
2021/09/02 11:06:07;;;;;;;3.83;3.08;;;;;;;33.73;21.89;101453.34;143723;583;47004;-71
2021/09/02 11:08:37;;;;;;;4.50;3.08;;;;;;;33.79;22.06;101451.16;143725;599;46010;-71
2021/09/02 11:11:29;;;;;;;5.50;3.30;;;;;;;33.84;20.98;101451.75;143717;665;48004;-70
2021/09/02 11:13:56;;;;;;;4.43;3.10;;;;;;;33.88;21.51;101446.34;143724;610;46008;-71
2021/09/02 11:16:23;;;;;;;3.53;2.62;;;;;;;33.93;21.17;101457.28;143725;647;47004;-72
2021/09/02 11:18:55;;;;;;;6.82;3.20;;;;;;;33.91;21.57;101448.47;143724;573;46009;-70
2021/09/02 11:21:24;;;;;;;6.50;3.25;;;;;;;34.00;21.88;101456.75;143720;627;47006;-71
2021/09/02 11:24:08;;;;;;;3.33;3.00;;;;;;;33.97;21.35;101446.28;143724;665;47008;-71
2021/09/02 11:26:38;;;;;;;5.35;3.28;;;;;;;33.94;20.74;101464.50;143723;568;47004;-71
2021/09/02 11:29:06;;;;;;;3.97;2.90;;;;;;;33.89;20.67;101447.16;143719;575;47013;-72
2021/09/02 11:31:34;;;;;;;4.45;3.40;;;;;;;33.90;21.58;101443.22;143719;634;46925;-71